sensor_id;sensor_type;location;lat;lon;timestamp;temperature;humidity
10692;DHT22;5396;50.950;6.988;2022-12-18T00:01:24;-4.50;99.90
10692;DHT22;5396;50.950;6.988;2022-12-18T00:03:51;-4.50;99.90
10692;DHT22;5396;50.950;6.988;2022-12-18T00:06:18;-4.60;99.90
10692;DHT22;5396;50.950;6.988;2022-12-18T00:08:44;-4.70;99.90
10692;DHT22;5396;50.950;6.988;2022-12-18T00:11:13;-4.70;99.90
10692;DHT22;5396;50.950;6.988;2022-12-18T00:13:39;-4.70;99.90
10692;DHT22;5396;50.950;6.988;2022-12-18T00:16:08;-4.70;99.90
10692;DHT22;5396;50.950;6.988;2022-12-18T00:18:34;-4.70;99.90
10692;DHT22;5396;50.950;6.988;2022-12-18T00:21:02;-4.60;99.90
10692;DHT22;5396;50.950;6.988;2022-12-18T00:23:29;-4.70;99.90
10692;DHT22;5396;50.950;6.988;2022-12-18T00:25:54;-4.70;99.90
10692;DHT22;5396;50.950;6.988;2022-12-18T00:28:20;-4.70;99.90
10692;DHT22;5396;50.950;6.988;2022-12-18T00:30:46;-4.60;99.90
10692;DHT22;5396;50.950;6.988;2022-12-18T00:33:11;-4.70;99.90
10692;DHT22;5396;50.950;6.988;2022-12-18T00:35:37;-4.80;99.90
10692;DHT22;5396;50.950;6.988;2022-12-18T00:38:02;-4.80;99.90
10692;DHT22;5396;50.950;6.988;2022-12-18T00:40:28;-4.80;99.90
10692;DHT22;5396;50.950;6.988;2022-12-18T00:42:54;-4.80;99.90
10692;DHT22;5396;50.950;6.988;2022-12-18T00:45:26;-4.80;99.90
10692;DHT22;5396;50.950;6.988;2022-12-18T00:47:52;-4.80;99.90
10692;DHT22;5396;50.950;6.988;2022-12-18T00:50:18;-4.80;99.90
10692;DHT22;5396;50.950;6.988;2022-12-18T00:52:44;-4.80;99.90
10692;DHT22;5396;50.950;6.988;2022-12-18T00:55:10;-4.70;99.90
10692;DHT22;5396;50.950;6.988;2022-12-18T00:57:36;-4.70;99.90
10692;DHT22;5396;50.950;6.988;2022-12-18T01:00:03;-4.60;99.90
10692;DHT22;5396;50.950;6.988;2022-12-18T01:02:29;-4.60;99.90
10692;DHT22;5396;50.950;6.988;2022-12-18T01:04:54;-4.60;99.90
10692;DHT22;5396;50.950;6.988;2022-12-18T01:07:20;-4.60;99.90
10692;DHT22;5396;50.950;6.988;2022-12-18T01:09:45;-4.60;99.90
10692;DHT22;5396;50.950;6.988;2022-12-18T01:12:11;-4.60;99.90
10692;DHT22;5396;50.950;6.988;2022-12-18T01:14:37;-4.60;99.90
10692;DHT22;5396;50.950;6.988;2022-12-18T01:17:03;-4.50;99.90
10692;DHT22;5396;50.950;6.988;2022-12-18T01:19:29;-4.60;99.90
10692;DHT22;5396;50.950;6.988;2022-12-18T01:21:54;-4.60;99.90
10692;DHT22;5396;50.950;6.988;2022-12-18T01:24:20;-4.60;99.90
10692;DHT22;5396;50.950;6.988;2022-12-18T01:26:46;-4.40;99.90
10692;DHT22;5396;50.950;6.988;2022-12-18T01:29:11;-4.50;99.90
10692;DHT22;5396;50.950;6.988;2022-12-18T01:31:37;-4.50;99.90
10692;DHT22;5396;50.950;6.988;2022-12-18T01:34:04;-4.60;99.90
10692;DHT22;5396;50.950;6.988;2022-12-18T01:36:32;-4.60;99.90
10692;DHT22;5396;50.950;6.988;2022-12-18T01:39:04;-4.60;99.90
10692;DHT22;5396;50.950;6.988;2022-12-18T01:41:31;-4.60;99.90
10692;DHT22;5396;50.950;6.988;2022-12-18T01:49:51;-4.50;99.90
10692;DHT22;5396;50.950;6.988;2022-12-18T01:52:17;-4.50;99.90
10692;DHT22;5396;50.950;6.988;2022-12-18T01:54:44;-4.60;99.90
10692;DHT22;5396;50.950;6.988;2022-12-18T01:57:11;-4.50;99.90
10692;DHT22;5396;50.950;6.988;2022-12-18T01:59:37;-4.60;99.90
10692;DHT22;5396;50.950;6.988;2022-12-18T02:02:03;-4.50;99.90
10692;DHT22;5396;50.950;6.988;2022-12-18T02:04:29;-4.50;99.90
10692;DHT22;5396;50.950;6.988;2022-12-18T02:09:40;-4.60;99.90
10692;DHT22;5396;50.950;6.988;2022-12-18T02:12:24;-4.60;99.90
10692;DHT22;5396;50.950;6.988;2022-12-18T02:15:24;-4.60;99.90
10692;DHT22;5396;50.950;6.988;2022-12-18T02:17:56;-4.70;99.90
10692;DHT22;5396;50.950;6.988;2022-12-18T02:20:35;-4.80;99.90
10692;DHT22;5396;50.950;6.988;2022-12-18T02:29:02;-4.80;99.90
10692;DHT22;5396;50.950;6.988;2022-12-18T02:31:36;-4.70;99.90
10692;DHT22;5396;50.950;6.988;2022-12-18T02:34:05;-4.70;99.90
10692;DHT22;5396;50.950;6.988;2022-12-18T02:36:33;-4.80;99.90
10692;DHT22;5396;50.950;6.988;2022-12-18T02:39:02;-4.80;99.90
10692;DHT22;5396;50.950;6.988;2022-12-18T02:41:28;-4.70;99.90
10692;DHT22;5396;50.950;6.988;2022-12-18T02:43:57;-4.70;99.90
10692;DHT22;5396;50.950;6.988;2022-12-18T02:46:32;-4.70;99.90
10692;DHT22;5396;50.950;6.988;2022-12-18T02:49:12;-4.70;99.90
10692;DHT22;5396;50.950;6.988;2022-12-18T02:57:21;-4.80;99.90
10692;DHT22;5396;50.950;6.988;2022-12-18T03:00:02;-4.80;99.90
10692;DHT22;5396;50.950;6.988;2022-12-18T03:02:45;-4.80;99.90
10692;DHT22;5396;50.950;6.988;2022-12-18T03:05:22;-4.90;99.90
10692;DHT22;5396;50.950;6.988;2022-12-18T03:07:57;-4.90;99.90
10692;DHT22;5396;50.950;6.988;2022-12-18T03:10:28;-4.90;99.90
10692;DHT22;5396;50.950;6.988;2022-12-18T03:13:06;-4.90;99.90
10692;DHT22;5396;50.950;6.988;2022-12-18T03:15:38;-4.90;99.90
10692;DHT22;5396;50.950;6.988;2022-12-18T03:18:30;-4.90;99.90
10692;DHT22;5396;50.950;6.988;2022-12-18T03:21:02;-4.90;99.90
10692;DHT22;5396;50.950;6.988;2022-12-18T03:23:32;-4.90;99.90
10692;DHT22;5396;50.950;6.988;2022-12-18T03:26:02;-4.90;99.90
10692;DHT22;5396;50.950;6.988;2022-12-18T03:28:32;-4.80;99.90
10692;DHT22;5396;50.950;6.988;2022-12-18T03:31:00;-4.80;99.90
10692;DHT22;5396;50.950;6.988;2022-12-18T03:33:34;-4.90;99.90
10692;DHT22;5396;50.950;6.988;2022-12-18T03:36:01;-4.90;99.90
10692;DHT22;5396;50.950;6.988;2022-12-18T03:38:27;-4.90;99.90
10692;DHT22;5396;50.950;6.988;2022-12-18T03:43:49;-4.80;99.90
10692;DHT22;5396;50.950;6.988;2022-12-18T03:46:28;-4.90;99.90
10692;DHT22;5396;50.950;6.988;2022-12-18T03:49:23;-4.80;99.90
10692;DHT22;5396;50.950;6.988;2022-12-18T03:54:51;-4.90;99.90
10692;DHT22;5396;50.950;6.988;2022-12-18T03:57:21;-5.00;99.90
10692;DHT22;5396;50.950;6.988;2022-12-18T03:59:50;-4.90;99.90
10692;DHT22;5396;50.950;6.988;2022-12-18T04:02:17;-5.00;99.90
10692;DHT22;5396;50.950;6.988;2022-12-18T04:04:44;-5.00;99.90
10692;DHT22;5396;50.950;6.988;2022-12-18T04:07:10;-5.00;99.90
10692;DHT22;5396;50.950;6.988;2022-12-18T04:09:39;-5.10;99.90
10692;DHT22;5396;50.950;6.988;2022-12-18T04:12:05;-5.00;99.90
10692;DHT22;5396;50.950;6.988;2022-12-18T04:14:31;-5.10;99.90
10692;DHT22;5396;50.950;6.988;2022-12-18T04:17:01;-5.10;99.90
10692;DHT22;5396;50.950;6.988;2022-12-18T04:19:26;-5.00;99.90
10692;DHT22;5396;50.950;6.988;2022-12-18T04:21:52;-4.90;99.90
10692;DHT22;5396;50.950;6.988;2022-12-18T04:24:17;-4.80;99.90
10692;DHT22;5396;50.950;6.988;2022-12-18T04:26:43;-4.80;99.90
10692;DHT22;5396;50.950;6.988;2022-12-18T04:29:09;-4.90;99.90
10692;DHT22;5396;50.950;6.988;2022-12-18T04:31:34;-4.90;99.90
10692;DHT22;5396;50.950;6.988;2022-12-18T04:34:00;-4.90;99.90
10692;DHT22;5396;50.950;6.988;2022-12-18T04:36:25;-4.90;99.90
10692;DHT22;5396;50.950;6.988;2022-12-18T04:38:51;-4.80;99.90
10692;DHT22;5396;50.950;6.988;2022-12-18T04:41:16;-4.80;99.90
10692;DHT22;5396;50.950;6.988;2022-12-18T04:43:42;-4.80;99.90
10692;DHT22;5396;50.950;6.988;2022-12-18T04:46:08;-4.80;99.90
10692;DHT22;5396;50.950;6.988;2022-12-18T04:48:36;-4.80;99.90
10692;DHT22;5396;50.950;6.988;2022-12-18T04:51:03;-4.80;99.90
10692;DHT22;5396;50.950;6.988;2022-12-18T04:53:29;-4.70;99.90
10692;DHT22;5396;50.950;6.988;2022-12-18T04:56:09;-4.70;99.90
10692;DHT22;5396;50.950;6.988;2022-12-18T04:58:36;-4.70;99.90
10692;DHT22;5396;50.950;6.988;2022-12-18T05:01:02;-4.70;99.90
10692;DHT22;5396;50.950;6.988;2022-12-18T05:03:28;-4.80;99.90
10692;DHT22;5396;50.950;6.988;2022-12-18T05:05:54;-4.80;99.90
10692;DHT22;5396;50.950;6.988;2022-12-18T05:08:20;-4.90;99.90
10692;DHT22;5396;50.950;6.988;2022-12-18T05:10:45;-4.80;99.90
10692;DHT22;5396;50.950;6.988;2022-12-18T05:13:11;-4.90;99.90
10692;DHT22;5396;50.950;6.988;2022-12-18T05:15:37;-5.00;99.90
10692;DHT22;5396;50.950;6.988;2022-12-18T05:18:03;-5.10;99.90
10692;DHT22;5396;50.950;6.988;2022-12-18T05:20:29;-5.10;99.90
10692;DHT22;5396;50.950;6.988;2022-12-18T05:22:55;-5.10;99.90
10692;DHT22;5396;50.950;6.988;2022-12-18T05:25:21;-5.20;99.90
10692;DHT22;5396;50.950;6.988;2022-12-18T05:27:47;-5.10;99.90
10692;DHT22;5396;50.950;6.988;2022-12-18T05:30:14;-5.10;99.90
10692;DHT22;5396;50.950;6.988;2022-12-18T05:32:40;-5.20;99.90
10692;DHT22;5396;50.950;6.988;2022-12-18T05:35:07;-5.10;99.90
10692;DHT22;5396;50.950;6.988;2022-12-18T05:37:33;-5.20;99.90
10692;DHT22;5396;50.950;6.988;2022-12-18T05:39:59;-5.20;99.90
10692;DHT22;5396;50.950;6.988;2022-12-18T05:42:24;-5.20;99.90
10692;DHT22;5396;50.950;6.988;2022-12-18T05:44:50;-5.30;99.90
10692;DHT22;5396;50.950;6.988;2022-12-18T05:47:16;-5.30;99.90
10692;DHT22;5396;50.950;6.988;2022-12-18T05:49:41;-5.20;99.90
10692;DHT22;5396;50.950;6.988;2022-12-18T05:52:07;-5.20;99.90
10692;DHT22;5396;50.950;6.988;2022-12-18T05:54:33;-5.20;99.90
10692;DHT22;5396;50.950;6.988;2022-12-18T05:56:58;-5.20;99.90
10692;DHT22;5396;50.950;6.988;2022-12-18T05:59:24;-5.30;99.90
10692;DHT22;5396;50.950;6.988;2022-12-18T06:01:50;-5.30;99.90
10692;DHT22;5396;50.950;6.988;2022-12-18T06:04:15;-5.40;99.90
10692;DHT22;5396;50.950;6.988;2022-12-18T06:06:41;-5.30;99.90
10692;DHT22;5396;50.950;6.988;2022-12-18T06:09:07;-5.30;99.90
10692;DHT22;5396;50.950;6.988;2022-12-18T06:11:36;-5.40;99.90
10692;DHT22;5396;50.950;6.988;2022-12-18T06:14:03;-5.30;99.90
10692;DHT22;5396;50.950;6.988;2022-12-18T06:16:30;-5.30;99.90
10692;DHT22;5396;50.950;6.988;2022-12-18T06:18:57;-5.30;99.90
10692;DHT22;5396;50.950;6.988;2022-12-18T06:21:23;-5.30;99.90
10692;DHT22;5396;50.950;6.988;2022-12-18T06:23:48;-5.30;99.90
10692;DHT22;5396;50.950;6.988;2022-12-18T06:26:14;-5.30;99.90
10692;DHT22;5396;50.950;6.988;2022-12-18T06:28:40;-5.30;99.90
10692;DHT22;5396;50.950;6.988;2022-12-18T06:31:07;-5.30;99.90
10692;DHT22;5396;50.950;6.988;2022-12-18T06:33:33;-5.20;99.90
10692;DHT22;5396;50.950;6.988;2022-12-18T06:36:07;-5.20;99.90
10692;DHT22;5396;50.950;6.988;2022-12-18T06:38:35;-5.20;99.90
10692;DHT22;5396;50.950;6.988;2022-12-18T06:41:05;-5.20;99.90
10692;DHT22;5396;50.950;6.988;2022-12-18T06:43:31;-5.30;99.90
10692;DHT22;5396;50.950;6.988;2022-12-18T06:46:00;-5.30;99.90
10692;DHT22;5396;50.950;6.988;2022-12-18T06:48:26;-5.20;99.90
10692;DHT22;5396;50.950;6.988;2022-12-18T06:50:52;-5.20;99.90
10692;DHT22;5396;50.950;6.988;2022-12-18T06:53:17;-5.20;99.90
10692;DHT22;5396;50.950;6.988;2022-12-18T06:55:43;-5.20;99.90
10692;DHT22;5396;50.950;6.988;2022-12-18T06:58:09;-5.20;99.90
10692;DHT22;5396;50.950;6.988;2022-12-18T07:00:34;-5.20;99.90
10692;DHT22;5396;50.950;6.988;2022-12-18T07:03:00;-5.20;99.90
10692;DHT22;5396;50.950;6.988;2022-12-18T07:05:25;-5.20;99.90
10692;DHT22;5396;50.950;6.988;2022-12-18T07:07:51;-5.20;99.90
10692;DHT22;5396;50.950;6.988;2022-12-18T07:10:17;-5.10;99.90
10692;DHT22;5396;50.950;6.988;2022-12-18T07:12:43;-5.10;99.90
10692;DHT22;5396;50.950;6.988;2022-12-18T07:15:09;-5.10;99.90
10692;DHT22;5396;50.950;6.988;2022-12-18T07:17:35;-5.10;99.90
10692;DHT22;5396;50.950;6.988;2022-12-18T07:20:01;-5.00;99.90
10692;DHT22;5396;50.950;6.988;2022-12-18T07:22:26;-4.90;99.90
10692;DHT22;5396;50.950;6.988;2022-12-18T07:24:52;-4.90;99.90
10692;DHT22;5396;50.950;6.988;2022-12-18T07:27:18;-4.90;99.90
10692;DHT22;5396;50.950;6.988;2022-12-18T07:29:43;-4.80;99.90
10692;DHT22;5396;50.950;6.988;2022-12-18T07:32:09;-4.80;99.90
10692;DHT22;5396;50.950;6.988;2022-12-18T07:34:34;-4.80;99.90
10692;DHT22;5396;50.950;6.988;2022-12-18T07:37:00;-4.80;99.90
10692;DHT22;5396;50.950;6.988;2022-12-18T07:39:26;-4.90;99.90
10692;DHT22;5396;50.950;6.988;2022-12-18T07:41:52;-4.80;99.90
10692;DHT22;5396;50.950;6.988;2022-12-18T07:44:36;-4.80;99.90
10692;DHT22;5396;50.950;6.988;2022-12-18T07:47:02;-4.80;99.90
10692;DHT22;5396;50.950;6.988;2022-12-18T07:49:28;-4.80;99.90
10692;DHT22;5396;50.950;6.988;2022-12-18T07:51:55;-4.80;99.90
10692;DHT22;5396;50.950;6.988;2022-12-18T07:54:24;-4.80;99.90
10692;DHT22;5396;50.950;6.988;2022-12-18T07:56:51;-4.90;99.90
10692;DHT22;5396;50.950;6.988;2022-12-18T07:59:17;-4.90;99.90
10692;DHT22;5396;50.950;6.988;2022-12-18T08:01:42;-4.90;99.90
10692;DHT22;5396;50.950;6.988;2022-12-18T08:04:08;-4.80;99.90
10692;DHT22;5396;50.950;6.988;2022-12-18T08:06:34;-4.80;99.90
10692;DHT22;5396;50.950;6.988;2022-12-18T08:08:59;-4.60;99.90
10692;DHT22;5396;50.950;6.988;2022-12-18T08:11:26;-4.70;99.90
10692;DHT22;5396;50.950;6.988;2022-12-18T08:13:53;-4.70;99.90
10692;DHT22;5396;50.950;6.988;2022-12-18T08:16:19;-4.60;99.90
10692;DHT22;5396;50.950;6.988;2022-12-18T08:18:45;-4.60;99.90
10692;DHT22;5396;50.950;6.988;2022-12-18T08:21:26;-4.60;99.90
10692;DHT22;5396;50.950;6.988;2022-12-18T08:23:53;-4.50;99.90
10692;DHT22;5396;50.950;6.988;2022-12-18T08:26:20;-4.40;99.90
10692;DHT22;5396;50.950;6.988;2022-12-18T08:28:46;-4.20;99.90
10692;DHT22;5396;50.950;6.988;2022-12-18T08:31:11;-4.20;99.90
10692;DHT22;5396;50.950;6.988;2022-12-18T08:33:38;-4.10;99.90
10692;DHT22;5396;50.950;6.988;2022-12-18T08:36:05;-4.00;99.90
10692;DHT22;5396;50.950;6.988;2022-12-18T08:38:32;-4.00;99.90
10692;DHT22;5396;50.950;6.988;2022-12-18T08:41:01;-3.90;99.90
10692;DHT22;5396;50.950;6.988;2022-12-18T08:43:27;-3.90;99.90
10692;DHT22;5396;50.950;6.988;2022-12-18T08:46:11;-3.90;99.90
10692;DHT22;5396;50.950;6.988;2022-12-18T08:48:37;-3.80;99.90
10692;DHT22;5396;50.950;6.988;2022-12-18T08:51:03;-3.70;99.90
10692;DHT22;5396;50.950;6.988;2022-12-18T08:53:29;-3.70;99.90
10692;DHT22;5396;50.950;6.988;2022-12-18T08:55:56;-3.70;99.90
10692;DHT22;5396;50.950;6.988;2022-12-18T08:58:22;-3.50;99.90
10692;DHT22;5396;50.950;6.988;2022-12-18T09:00:47;-3.50;99.90
10692;DHT22;5396;50.950;6.988;2022-12-18T09:03:15;-3.40;99.90
10692;DHT22;5396;50.950;6.988;2022-12-18T09:05:41;-3.30;99.90
10692;DHT22;5396;50.950;6.988;2022-12-18T09:08:07;-3.30;99.90
10692;DHT22;5396;50.950;6.988;2022-12-18T09:10:33;-3.20;99.90
10692;DHT22;5396;50.950;6.988;2022-12-18T09:12:59;-3.10;99.90
10692;DHT22;5396;50.950;6.988;2022-12-18T09:15:25;-3.00;99.90
10692;DHT22;5396;50.950;6.988;2022-12-18T09:17:50;-3.00;99.90
10692;DHT22;5396;50.950;6.988;2022-12-18T09:20:18;-2.90;99.90
10692;DHT22;5396;50.950;6.988;2022-12-18T09:22:44;-2.90;99.90
10692;DHT22;5396;50.950;6.988;2022-12-18T09:25:09;-2.90;99.90
10692;DHT22;5396;50.950;6.988;2022-12-18T09:27:35;-2.80;99.90
10692;DHT22;5396;50.950;6.988;2022-12-18T09:30:01;-2.80;99.90
10692;DHT22;5396;50.950;6.988;2022-12-18T09:32:27;-2.70;99.90
10692;DHT22;5396;50.950;6.988;2022-12-18T09:34:53;-2.60;99.90
10692;DHT22;5396;50.950;6.988;2022-12-18T09:37:18;-2.50;99.90
10692;DHT22;5396;50.950;6.988;2022-12-18T09:39:44;-2.40;99.90
10692;DHT22;5396;50.950;6.988;2022-12-18T09:42:19;-2.40;99.90
10692;DHT22;5396;50.950;6.988;2022-12-18T09:44:53;-2.30;99.90
10692;DHT22;5396;50.950;6.988;2022-12-18T09:47:25;-2.20;99.90
10692;DHT22;5396;50.950;6.988;2022-12-18T09:49:59;-2.20;99.90
10692;DHT22;5396;50.950;6.988;2022-12-18T09:52:41;-2.10;99.90
10692;DHT22;5396;50.950;6.988;2022-12-18T09:55:30;-2.00;99.90
10692;DHT22;5396;50.950;6.988;2022-12-18T09:58:02;-2.00;99.90
10692;DHT22;5396;50.950;6.988;2022-12-18T10:00:30;-1.90;99.90
10692;DHT22;5396;50.950;6.988;2022-12-18T10:03:08;-1.80;99.90
10692;DHT22;5396;50.950;6.988;2022-12-18T10:05:46;-1.80;99.90
10692;DHT22;5396;50.950;6.988;2022-12-18T10:20:07;-1.60;99.90
10692;DHT22;5396;50.950;6.988;2022-12-18T10:22:50;-1.50;99.90
10692;DHT22;5396;50.950;6.988;2022-12-18T10:25:22;-1.40;99.90
10692;DHT22;5396;50.950;6.988;2022-12-18T10:27:56;-1.40;99.90
10692;DHT22;5396;50.950;6.988;2022-12-18T10:30:24;-1.30;99.90
10692;DHT22;5396;50.950;6.988;2022-12-18T10:32:50;-1.30;99.90
10692;DHT22;5396;50.950;6.988;2022-12-18T10:35:22;-1.20;99.90
10692;DHT22;5396;50.950;6.988;2022-12-18T10:40:56;-1.20;99.90
10692;DHT22;5396;50.950;6.988;2022-12-18T10:43:26;-1.10;99.90
10692;DHT22;5396;50.950;6.988;2022-12-18T10:51:25;-0.90;99.90
10692;DHT22;5396;50.950;6.988;2022-12-18T10:56:20;-0.90;99.90
10692;DHT22;5396;50.950;6.988;2022-12-18T10:58:56;-0.90;99.90
10692;DHT22;5396;50.950;6.988;2022-12-18T11:01:22;-0.80;99.90
10692;DHT22;5396;50.950;6.988;2022-12-18T11:06:18;-0.80;99.90
10692;DHT22;5396;50.950;6.988;2022-12-18T11:09:05;-0.70;99.90
10692;DHT22;5396;50.950;6.988;2022-12-18T11:11:32;-0.70;99.90
10692;DHT22;5396;50.950;6.988;2022-12-18T11:14:15;-0.70;99.90
10692;DHT22;5396;50.950;6.988;2022-12-18T11:16:45;-0.60;99.90
10692;DHT22;5396;50.950;6.988;2022-12-18T11:21:56;-0.60;99.90
10692;DHT22;5396;50.950;6.988;2022-12-18T11:24:34;-0.60;99.90
10692;DHT22;5396;50.950;6.988;2022-12-18T11:27:03;-0.60;99.90
10692;DHT22;5396;50.950;6.988;2022-12-18T11:29:39;-0.60;99.90
10692;DHT22;5396;50.950;6.988;2022-12-18T11:34:52;-0.60;99.90
10692;DHT22;5396;50.950;6.988;2022-12-18T11:37:20;-0.50;99.90
10692;DHT22;5396;50.950;6.988;2022-12-18T11:39:50;-0.60;99.90
10692;DHT22;5396;50.950;6.988;2022-12-18T11:48:03;-0.60;99.90
10692;DHT22;5396;50.950;6.988;2022-12-18T11:50:52;-0.60;99.90
10692;DHT22;5396;50.950;6.988;2022-12-18T11:53:19;-0.50;99.90
10692;DHT22;5396;50.950;6.988;2022-12-18T11:56:02;-0.40;99.90
10692;DHT22;5396;50.950;6.988;2022-12-18T11:59:17;-0.40;99.90
10692;DHT22;5396;50.950;6.988;2022-12-18T12:01:52;-0.50;99.90
10692;DHT22;5396;50.950;6.988;2022-12-18T12:09:44;-0.60;99.90
10692;DHT22;5396;50.950;6.988;2022-12-18T12:18:16;-0.60;99.90
10692;DHT22;5396;50.950;6.988;2022-12-18T12:26:10;-0.60;99.90
10692;DHT22;5396;50.950;6.988;2022-12-18T12:39:20;-0.50;99.90
10692;DHT22;5396;50.950;6.988;2022-12-18T12:41:47;-0.60;99.90
10692;DHT22;5396;50.950;6.988;2022-12-18T12:44:53;-0.50;99.90
10692;DHT22;5396;50.950;6.988;2022-12-18T12:49:49;-0.50;99.90
10692;DHT22;5396;50.950;6.988;2022-12-18T12:52:22;-0.60;99.90
10692;DHT22;5396;50.950;6.988;2022-12-18T12:54:49;-0.60;99.90
10692;DHT22;5396;50.950;6.988;2022-12-18T12:57:23;-0.60;99.90
10692;DHT22;5396;50.950;6.988;2022-12-18T13:00:05;-0.50;99.90
10692;DHT22;5396;50.950;6.988;2022-12-18T13:05:19;-0.60;99.90
10692;DHT22;5396;50.950;6.988;2022-12-18T13:07:52;-0.60;99.90
10692;DHT22;5396;50.950;6.988;2022-12-18T13:13:10;-0.60;99.90
10692;DHT22;5396;50.950;6.988;2022-12-18T13:15:47;-0.50;99.90
10692;DHT22;5396;50.950;6.988;2022-12-18T13:18:20;-0.60;99.90
10692;DHT22;5396;50.950;6.988;2022-12-18T13:23:27;-0.60;99.90
10692;DHT22;5396;50.950;6.988;2022-12-18T13:28:51;-0.50;99.90
10692;DHT22;5396;50.950;6.988;2022-12-18T13:34:23;-0.50;99.90
10692;DHT22;5396;50.950;6.988;2022-12-18T13:36:50;-0.50;99.90
10692;DHT22;5396;50.950;6.988;2022-12-18T13:41:51;-0.50;99.90
10692;DHT22;5396;50.950;6.988;2022-12-18T13:44:35;-0.50;99.90
10692;DHT22;5396;50.950;6.988;2022-12-18T13:47:04;-0.50;99.90
10692;DHT22;5396;50.950;6.988;2022-12-18T13:52:01;-0.50;99.90
10692;DHT22;5396;50.950;6.988;2022-12-18T13:54:40;-0.50;99.90
10692;DHT22;5396;50.950;6.988;2022-12-18T13:57:26;-0.50;99.90
10692;DHT22;5396;50.950;6.988;2022-12-18T13:59:52;-0.60;99.90
10692;DHT22;5396;50.950;6.988;2022-12-18T14:02:22;-0.60;99.90
10692;DHT22;5396;50.950;6.988;2022-12-18T14:04:49;-0.70;99.90
10692;DHT22;5396;50.950;6.988;2022-12-18T14:07:18;-0.70;99.90
10692;DHT22;5396;50.950;6.988;2022-12-18T14:09:50;-0.80;99.90
10692;DHT22;5396;50.950;6.988;2022-12-18T14:12:33;-0.80;99.90
10692;DHT22;5396;50.950;6.988;2022-12-18T14:18:22;-0.90;99.90
10692;DHT22;5396;50.950;6.988;2022-12-18T14:20:50;-0.70;99.90
10692;DHT22;5396;50.950;6.988;2022-12-18T14:25:56;-0.90;99.90
10692;DHT22;5396;50.950;6.988;2022-12-18T14:28:22;-1.00;99.90
10692;DHT22;5396;50.950;6.988;2022-12-18T14:30:48;-1.00;99.90
10692;DHT22;5396;50.950;6.988;2022-12-18T14:33:20;-0.90;99.90
10692;DHT22;5396;50.950;6.988;2022-12-18T14:36:01;-1.00;99.90
10692;DHT22;5396;50.950;6.988;2022-12-18T14:38:31;-1.10;99.90
10692;DHT22;5396;50.950;6.988;2022-12-18T14:43:36;-1.10;99.90
10692;DHT22;5396;50.950;6.988;2022-12-18T14:46:04;-1.10;99.90
10692;DHT22;5396;50.950;6.988;2022-12-18T14:48:36;-1.20;99.90
10692;DHT22;5396;50.950;6.988;2022-12-18T14:53:35;-1.20;99.90
10692;DHT22;5396;50.950;6.988;2022-12-18T14:56:02;-1.20;99.90
10692;DHT22;5396;50.950;6.988;2022-12-18T14:58:28;-1.30;99.90
10692;DHT22;5396;50.950;6.988;2022-12-18T15:00:54;-1.30;99.90
10692;DHT22;5396;50.950;6.988;2022-12-18T15:03:20;-1.30;99.90
10692;DHT22;5396;50.950;6.988;2022-12-18T15:05:47;-1.30;99.90
10692;DHT22;5396;50.950;6.988;2022-12-18T15:08:39;-1.30;99.90
10692;DHT22;5396;50.950;6.988;2022-12-18T15:11:25;-1.40;99.90
10692;DHT22;5396;50.950;6.988;2022-12-18T15:13:51;-1.30;99.90
10692;DHT22;5396;50.950;6.988;2022-12-18T15:16:17;-1.30;99.90
10692;DHT22;5396;50.950;6.988;2022-12-18T15:18:43;-1.40;99.90
10692;DHT22;5396;50.950;6.988;2022-12-18T15:21:14;-1.40;99.90
10692;DHT22;5396;50.950;6.988;2022-12-18T15:26:12;-1.40;99.90
10692;DHT22;5396;50.950;6.988;2022-12-18T15:33:42;-1.40;99.90
10692;DHT22;5396;50.950;6.988;2022-12-18T15:36:14;-1.50;99.90
10692;DHT22;5396;50.950;6.988;2022-12-18T15:38:40;-1.50;99.90
10692;DHT22;5396;50.950;6.988;2022-12-18T15:41:05;-1.50;99.90
10692;DHT22;5396;50.950;6.988;2022-12-18T15:43:31;-1.50;99.90
10692;DHT22;5396;50.950;6.988;2022-12-18T15:46:09;-1.50;99.90
10692;DHT22;5396;50.950;6.988;2022-12-18T15:48:40;-1.60;99.90
10692;DHT22;5396;50.950;6.988;2022-12-18T15:51:13;-1.60;99.90
10692;DHT22;5396;50.950;6.988;2022-12-18T15:53:40;-1.60;99.90
10692;DHT22;5396;50.950;6.988;2022-12-18T15:56:10;-1.60;99.90
10692;DHT22;5396;50.950;6.988;2022-12-18T15:58:55;-1.60;99.90
10692;DHT22;5396;50.950;6.988;2022-12-18T16:01:22;-1.70;99.90
10692;DHT22;5396;50.950;6.988;2022-12-18T16:03:48;-1.60;99.90
10692;DHT22;5396;50.950;6.988;2022-12-18T16:06:14;-1.60;99.90
10692;DHT22;5396;50.950;6.988;2022-12-18T16:08:39;-1.60;99.90
10692;DHT22;5396;50.950;6.988;2022-12-18T16:11:05;-1.70;99.90
10692;DHT22;5396;50.950;6.988;2022-12-18T16:13:31;-1.70;99.90
10692;DHT22;5396;50.950;6.988;2022-12-18T16:15:56;-1.60;99.90
10692;DHT22;5396;50.950;6.988;2022-12-18T16:18:22;-1.60;99.90
10692;DHT22;5396;50.950;6.988;2022-12-18T16:20:48;-1.60;99.90
10692;DHT22;5396;50.950;6.988;2022-12-18T16:23:14;-1.60;99.90
10692;DHT22;5396;50.950;6.988;2022-12-18T16:25:39;-1.70;99.90
10692;DHT22;5396;50.950;6.988;2022-12-18T16:28:05;-1.70;99.90
10692;DHT22;5396;50.950;6.988;2022-12-18T16:30:31;-1.60;99.90
10692;DHT22;5396;50.950;6.988;2022-12-18T16:32:58;-1.60;99.90
10692;DHT22;5396;50.950;6.988;2022-12-18T16:35:24;-1.70;99.90
10692;DHT22;5396;50.950;6.988;2022-12-18T16:37:50;-1.60;99.90
10692;DHT22;5396;50.950;6.988;2022-12-18T16:40:16;-1.60;99.90
10692;DHT22;5396;50.950;6.988;2022-12-18T16:42:44;-1.60;99.90
10692;DHT22;5396;50.950;6.988;2022-12-18T16:45:13;-1.60;99.90
10692;DHT22;5396;50.950;6.988;2022-12-18T16:47:39;-1.60;99.90
10692;DHT22;5396;50.950;6.988;2022-12-18T16:50:06;-1.60;99.90
10692;DHT22;5396;50.950;6.988;2022-12-18T16:52:32;-1.70;99.90
10692;DHT22;5396;50.950;6.988;2022-12-18T16:54:57;-1.70;99.90
10692;DHT22;5396;50.950;6.988;2022-12-18T16:57:23;-1.70;99.90
10692;DHT22;5396;50.950;6.988;2022-12-18T16:59:49;-1.60;99.90
10692;DHT22;5396;50.950;6.988;2022-12-18T17:02:17;-1.70;99.90
10692;DHT22;5396;50.950;6.988;2022-12-18T17:04:43;-1.70;99.90
10692;DHT22;5396;50.950;6.988;2022-12-18T17:07:10;-1.70;99.90
10692;DHT22;5396;50.950;6.988;2022-12-18T17:09:36;-1.70;99.90
10692;DHT22;5396;50.950;6.988;2022-12-18T17:12:02;-1.70;99.90
10692;DHT22;5396;50.950;6.988;2022-12-18T17:14:28;-1.70;99.90
10692;DHT22;5396;50.950;6.988;2022-12-18T17:16:54;-1.60;99.90
10692;DHT22;5396;50.950;6.988;2022-12-18T17:19:23;-1.60;99.90
10692;DHT22;5396;50.950;6.988;2022-12-18T17:21:49;-1.60;99.90
10692;DHT22;5396;50.950;6.988;2022-12-18T17:24:15;-1.60;99.90
10692;DHT22;5396;50.950;6.988;2022-12-18T17:26:41;-1.50;99.90
10692;DHT22;5396;50.950;6.988;2022-12-18T17:29:08;-1.50;99.90
10692;DHT22;5396;50.950;6.988;2022-12-18T17:31:34;-1.50;99.90
10692;DHT22;5396;50.950;6.988;2022-12-18T17:34:01;-1.50;99.90
10692;DHT22;5396;50.950;6.988;2022-12-18T17:36:27;-1.50;99.90
10692;DHT22;5396;50.950;6.988;2022-12-18T17:38:57;-1.50;99.90
10692;DHT22;5396;50.950;6.988;2022-12-18T17:41:24;-1.50;99.90
10692;DHT22;5396;50.950;6.988;2022-12-18T17:43:55;-1.60;99.90
10692;DHT22;5396;50.950;6.988;2022-12-18T17:46:21;-1.60;99.90
10692;DHT22;5396;50.950;6.988;2022-12-18T17:48:47;-1.60;99.90
10692;DHT22;5396;50.950;6.988;2022-12-18T17:51:13;-1.60;99.90
10692;DHT22;5396;50.950;6.988;2022-12-18T17:53:40;-1.60;99.90
10692;DHT22;5396;50.950;6.988;2022-12-18T17:56:06;-1.60;99.90
10692;DHT22;5396;50.950;6.988;2022-12-18T17:58:35;-1.60;99.90
10692;DHT22;5396;50.950;6.988;2022-12-18T18:01:01;-1.50;99.90
10692;DHT22;5396;50.950;6.988;2022-12-18T18:03:27;-1.50;99.90
10692;DHT22;5396;50.950;6.988;2022-12-18T18:05:59;-1.50;99.90